الصفحة الرئيسية
METAR-TAF:

METAR-TAF

مطار :

مطار أوريل فلايكو الدولي

بوخارست Băneasa, رومانيا

دائرة عرض: 44-30N, خط طول: 026-08E, ارتفاع: 90 متر

مراقبة الطقس الحالي

تاريخ ووقت الإصدار 21 دقيقة قبل الساعة 07:30UTC
ريح 5 عقدة من الشرق/الشمال الشرقي, الاتجاه يتراوح بين الشمال/الشمال الشرقي و الجنوب الشرقي
درجة الحرارة 15°درجة مئوية
الرطوبة 72%
ضغط 1019 hPa
الرؤية 10 كم أو أكثر
غيوم متفرقة على ارتفاع 1700 قدم

METAR: LRBS 180730Z 06005KT 020V140 9999 SCT017 15/10 Q1019 NOSIG

زمن: 10:51 (07:51 UTC)

توقعات

تاريخ ووقت الإصدار 2ساعات و 51 دقيقة قبل الساعة 05:00UTC
التوقعات صالحة من18 الساعة 06 UTC إلى 19 الساعة 06 UTC
ريح 8 عقدة من الشمال الشرقي
الرؤية 10 كم أو أكثر
غيوم مفككة على ارتفاع 1000 قدم
غيوم مفككة على ارتفاع 4000 قدم
أصبح
من 18 الساعة 07 UTC إلى 18 الساعة 09 UTC
غيوم متفرقة على ارتفاع 4000 قدم

TAF: LRBS 180500Z 1806/1906 05008KT 9999 BKN010 BKN040 BECMG 1807/1809 SCT040

أرصاد الطقس والتوقعات من أكثر من 4000 مطار (تقارير الطقس للمطار METAR والتنبؤ بالطقس بالمطارTAF).

المحطات المتاحة هي النقط الصفراء والحمراء على الخريطة.

حرك المؤشر فوق النقطة لمعرفة اسم المحطة.

ثم انقر لمعرفة أرصاد وتوقعات الطقس.

لتغيير الخارطة: اضغط على الأزرار الخضراء مع رمز الصليب الأسود للتكبير. على الزر الأخضر مع شرطة للتصغير، أو على الأسهم الخضراء للخرائط المجاورة.


METAR-TAF: